createdAt,value
2019-03-24T00:05:59.318Z,3.22
2019-03-24T00:17:01.156Z,3.22
2019-03-24T00:27:59.226Z,3.22
2019-03-24T00:38:59.455Z,3.21
2019-03-24T00:49:59.868Z,3.21
2019-03-24T01:00:59.957Z,3.21
2019-03-24T01:12:01.798Z,3.21
2019-03-24T01:23:05.431Z,3.20
2019-03-24T01:34:05.088Z,3.20
2019-03-24T01:45:05.372Z,3.20
2019-03-24T01:56:06.240Z,3.19
2019-03-24T02:07:05.564Z,3.19
2019-03-24T02:18:04.173Z,3.19
2019-03-24T02:29:05.008Z,3.19
2019-03-24T02:40:09.378Z,3.18
2019-03-24T02:51:09.327Z,3.18
2019-03-24T03:02:13.409Z,3.18
2019-03-24T03:13:11.752Z,3.17
2019-03-24T03:24:06.408Z,3.17
2019-03-24T03:35:09.957Z,3.17
2019-03-24T03:46:11.367Z,3.17
2019-03-24T03:57:15.672Z,3.16
2019-03-24T04:08:16.735Z,3.16
2019-03-24T04:19:14.246Z,3.15
2019-03-24T04:30:13.781Z,3.15
2019-03-24T04:41:14.622Z,3.15
2019-03-24T04:52:16.772Z,3.15
2019-03-24T05:03:21.627Z,3.15
2019-03-24T05:14:19.875Z,3.15
2019-03-24T05:25:23.800Z,3.15
2019-03-24T05:36:23.233Z,3.16
2019-03-24T05:47:18.944Z,3.17
2019-03-24T05:58:23.476Z,3.18
2019-03-24T06:09:25.300Z,3.19
2019-03-24T06:20:25.748Z,3.20
2019-03-24T06:31:26.956Z,3.22
2019-03-24T06:42:25.189Z,3.23
2019-03-24T06:53:23.846Z,3.24
2019-03-24T07:04:24.977Z,3.25
2019-03-24T07:15:26.841Z,3.26
2019-03-24T07:26:24.852Z,3.28
2019-03-24T07:37:24.644Z,3.29
2019-03-24T07:48:24.408Z,3.30
2019-03-24T07:59:26.944Z,3.31
2019-03-24T08:10:31.007Z,3.32
2019-03-24T08:21:32.805Z,3.33
2019-03-24T08:32:37.630Z,3.34
2019-03-24T08:43:38.230Z,3.34
2019-03-24T08:54:38.476Z,3.34
2019-03-24T09:05:44.202Z,3.36
2019-03-24T09:16:46.812Z,3.37
2019-03-24T09:27:51.519Z,3.38
2019-03-24T09:38:53.000Z,3.39
2019-03-24T09:49:57.529Z,3.39
2019-03-24T10:01:00.533Z,3.40
2019-03-24T10:12:03.870Z,3.41
2019-03-24T10:23:07.889Z,3.42
2019-03-24T10:34:09.113Z,3.43
2019-03-24T10:45:03.278Z,3.41
2019-03-24T10:56:02.705Z,3.39
2019-03-24T11:07:01.269Z,3.39
2019-03-24T11:17:35.548Z,3.39
2019-03-24T11:28:29.998Z,3.39
2019-03-24T11:39:06.667Z,3.39
2019-03-24T11:50:06.231Z,3.40
2019-03-24T12:00:41.945Z,3.39
2019-03-24T12:11:28.578Z,3.39
2019-03-24T12:22:05.797Z,3.39
2019-03-24T12:32:32.886Z,3.40
2019-03-24T12:43:07.307Z,3.39
2019-03-24T12:53:46.798Z,3.39
2019-03-24T13:04:21.358Z,3.39
2019-03-24T13:15:00.038Z,3.39
2019-03-24T13:25:41.574Z,3.40
2019-03-24T13:36:26.793Z,3.40
2019-03-24T13:47:04.804Z,3.39
2019-03-24T13:57:40.207Z,3.39
2019-03-24T14:08:21.859Z,3.39
2019-03-24T14:19:06.802Z,3.39
2019-03-24T14:29:45.269Z,3.39
2019-03-24T14:40:26.336Z,3.39
2019-03-24T14:51:07.115Z,3.39
2019-03-24T15:01:45.265Z,3.38
2019-03-24T15:12:16.757Z,3.41
2019-03-24T15:22:47.992Z,3.39
2019-03-24T15:33:21.997Z,3.39
2019-03-24T15:43:57.070Z,3.39
2019-03-24T15:54:32.634Z,3.39
2019-03-24T16:05:05.981Z,3.39
2019-03-24T16:15:49.026Z,3.39
2019-03-24T16:26:30.874Z,3.38
2019-03-24T16:37:24.248Z,3.39
2019-03-24T16:48:08.453Z,3.38
2019-03-24T16:59:09.366Z,3.37
2019-03-24T17:10:08.294Z,3.37
2019-03-24T17:21:05.729Z,3.36
2019-03-24T17:32:02.335Z,3.35
2019-03-24T17:42:58.447Z,3.34
2019-03-24T17:53:57.494Z,3.34
2019-03-24T18:04:59.128Z,3.34
2019-03-24T18:15:59.499Z,3.33
2019-03-24T18:27:01.712Z,3.33
2019-03-24T18:38:04.819Z,3.33
2019-03-24T18:48:59.720Z,3.32
2019-03-24T18:59:56.921Z,3.32
2019-03-24T19:10:48.609Z,3.31
2019-03-24T19:21:43.434Z,3.31
2019-03-24T19:32:45.770Z,3.30
2019-03-24T19:43:43.381Z,3.30
2019-03-24T19:54:38.901Z,3.30
2019-03-24T20:05:32.507Z,3.29
2019-03-24T20:16:30.229Z,3.29
2019-03-24T20:27:25.885Z,3.29
2019-03-24T20:38:27.689Z,3.29
2019-03-24T20:49:25.829Z,3.28
2019-03-24T21:00:23.759Z,3.28
2019-03-24T21:11:23.452Z,3.28
2019-03-24T21:22:24.010Z,3.27
2019-03-24T21:33:21.794Z,3.27
2019-03-24T21:44:19.035Z,3.26
2019-03-24T21:55:12.309Z,3.26
2019-03-24T22:06:12.509Z,3.26
2019-03-24T22:17:12.104Z,3.25
2019-03-24T22:28:16.455Z,3.26
2019-03-24T22:39:17.683Z,3.26
2019-03-24T22:50:17.186Z,3.25
2019-03-24T23:01:19.152Z,3.25
2019-03-24T23:12:16.294Z,3.25
2019-03-24T23:23:13.993Z,3.25
2019-03-24T23:34:13.196Z,3.25
2019-03-24T23:45:12.048Z,3.25
2019-03-24T23:56:09.326Z,3.25
